Dakar, Senegal

6:37 AM GMT on August 31, 2016 (GMT +0000)
Unnamed Road | | Change Station

Elev 75 ft 14.73 °N, 17.49 °W | Updated 53 minutes ago

Partly Cloudy
Partly Cloudy
81.1 °F
Feels Like 88 °F
N
1.2
Wind Variable Wind from South
Gusts 3.7 mph

Today
High -- | Low -- °F
--% Chance of Precip.
Yesterday
High -- | Low -- °F
Precip. -- in
Pressure 29.92 in
Visibility 6.2 miles
Clouds Few 800 ft
Heat Index 88 °F
Dew Point 77 °F
Humidity 86%
Rainfall Not available.
Snow Depth Not available.
6:57 AM 7:22 PM
Waning Crescent, 1% visible
METAR GOOY 310630Z 18003KT 9999 FEW008 26/25 Q1013 NOSIG
Pressure 29.92 in
Visibility 6.2 miles
Clouds Few 800 ft
Heat Index 88 °F
Dew Point 77 °F
Humidity 86%
Rainfall Not available.
Snow Depth Not available.
6:57 AM 7:22 PM
Waning Crescent, 1% visible
METAR GOOY 310630Z 18003KT 9999 FEW008 26/25 Q1013 NOSIG

10-Day Weather Forecast

No radar image for this location.
×

Almanac

Astronomy

Aug. 31, 2016 Rise Set
Actual Time
Civil Twilight
Nautical Twilight
Astronomical Twilight
Moon
Length of Visible Light
Length of Day
Tomorrow will be .
, % of the Moon is Illuminated

Today's Extremes

Country Highs Country Lows

Community

WunderPhotos

Upload Photos

1,936,040 photos uploaded!

WunderBlog® & News

Nearby

Air Quality

  Air Quality AQ Index Pollutant
Not available.

Snow Depth

Station Depth Elevation

Earthquake Activity

City Distance Mag. Time & Date
Minimum magnitude displayed is 2.5.

Coastal Water Temperatures

Place Temperature

Stations

Nearby Weather Stations

Station Location Temp. Windchill Dew Point Humidity Wind Precip. Elev Updated Type